Time;durP1;ratioP1;P1;durP2;ratioP2;P2;SDS_P1;SDS_P2;PMS_P1;PMS_P2;Temp;Humidity;BMP_temperature;BMP_pressure;BME280_temperature;BME280_humidity;BME280_pressure;Samples;Min_cycle;Max_cycle;Signal;HPM_P1;HPM_P2
2022/12/03 00:02:02;;;;;;;34.67;20.60;;;3.00;99.90;;;;;;5049437;28;20064;-56
2022/12/03 00:04:27;;;;;;;39.40;21.03;;;3.00;99.90;;;;;;5048864;28;20041;-59
2022/12/03 00:06:53;;;;;;;35.10;20.13;;;3.00;99.90;;;;;;5061825;28;20039;-58
2022/12/03 00:09:19;;;;;;;37.93;21.17;;;3.00;99.90;;;;;;5069099;28;20488;-56
2022/12/03 00:11:44;;;;;;;35.53;21.57;;;3.00;99.90;;;;;;5065735;28;20531;-58
2022/12/03 00:14:10;;;;;;;36.20;20.10;;;3.10;99.90;;;;;;5054387;28;20119;-58
2022/12/03 00:16:35;;;;;;;38.03;21.83;;;3.10;99.90;;;;;;5062161;28;20036;-58
2022/12/03 00:19:01;;;;;;;40.40;20.73;;;3.10;99.90;;;;;;5069059;28;20676;-56
2022/12/03 00:21:27;;;;;;;41.23;21.97;;;3.10;99.90;;;;;;5060327;28;20032;-57
2022/12/03 00:23:52;;;;;;;41.83;20.07;;;3.10;99.90;;;;;;5069005;28;20043;-57
2022/12/03 00:26:18;;;;;;;34.90;21.57;;;3.10;99.90;;;;;;5060105;28;20032;-59
2022/12/03 00:28:43;;;;;;;38.87;21.97;;;3.20;99.90;;;;;;5056696;28;20048;-58
2022/12/03 00:31:09;;;;;;;44.20;22.40;;;3.20;99.90;;;;;;5059361;28;20107;-58
2022/12/03 00:33:34;;;;;;;38.60;21.73;;;3.20;99.90;;;;;;5048497;28;20037;-60
2022/12/03 00:36:00;;;;;;;38.43;21.07;;;3.20;99.90;;;;;;5063794;28;20094;-58
2022/12/03 00:38:25;;;;;;;37.57;21.47;;;3.20;99.90;;;;;;5055462;28;20044;-57
2022/12/03 00:40:51;;;;;;;39.23;22.43;;;3.20;99.90;;;;;;5054481;28;20037;-57
2022/12/03 00:43:17;;;;;;;39.77;20.13;;;3.20;99.90;;;;;;5052820;28;20041;-61
2022/12/03 00:45:42;;;;;;;42.37;22.17;;;3.20;99.90;;;;;;5062982;28;20402;-57
2022/12/03 00:48:08;;;;;;;41.67;21.90;;;3.20;99.90;;;;;;5060379;28;20029;-61
2022/12/03 00:50:33;;;;;;;38.23;22.10;;;3.30;99.90;;;;;;5068538;28;20074;-61
2022/12/03 00:52:59;;;;;;;40.83;22.53;;;3.30;99.90;;;;;;5050068;28;20048;-60
2022/12/03 00:55:24;;;;;;;39.53;23.10;;;3.30;99.90;;;;;;5068217;28;20112;-57
2022/12/03 00:57:50;;;;;;;40.43;21.77;;;3.30;99.90;;;;;;5059590;28;20040;-58
2022/12/03 01:00:16;;;;;;;42.53;21.97;;;3.30;99.90;;;;;;5058078;28;20406;-59
2022/12/03 01:02:42;;;;;;;44.58;24.02;;;3.30;99.90;;;;;;5055213;28;20071;-60
2022/12/03 01:05:08;;;;;;;36.90;21.93;;;3.30;99.90;;;;;;5051830;28;20402;-60
2022/12/03 01:07:34;;;;;;;36.45;21.63;;;3.30;99.90;;;;;;5065610;28;20048;-60
2022/12/03 01:10:01;;;;;;;41.22;23.50;;;3.30;99.90;;;;;;5063210;28;20051;-58
2022/12/03 01:12:26;;;;;;;43.53;23.15;;;3.30;99.90;;;;;;5056729;28;20494;-59
2022/12/03 01:14:52;;;;;;;37.73;21.53;;;3.30;99.90;;;;;;5049402;28;20045;-57
2022/12/03 01:17:17;;;;;;;42.63;21.40;;;3.30;99.90;;;;;;5049587;28;20037;-61
2022/12/03 01:19:43;;;;;;;38.17;21.07;;;3.30;99.90;;;;;;5049451;28;20051;-58
2022/12/03 01:22:09;;;;;;;40.47;22.33;;;3.30;99.90;;;;;;5049943;28;20119;-58
2022/12/03 01:24:34;;;;;;;38.83;22.03;;;3.30;99.90;;;;;;5049331;28;20048;-58
2022/12/03 01:27:00;;;;;;;37.27;22.50;;;3.40;99.90;;;;;;5049587;28;20040;-62
2022/12/03 01:29:25;;;;;;;41.57;22.13;;;3.30;99.90;;;;;;5050610;28;20047;-59
2022/12/03 01:34:35;;;;;;;40.50;22.10;;;3.30;99.90;;;;;;5049279;28;20433;-56
2022/12/03 01:37:00;;;;;;;39.07;24.00;;;3.40;99.90;;;;;;5049512;28;20041;-59
2022/12/03 01:39:26;;;;;;;45.80;24.60;;;3.30;99.90;;;;;;5049520;28;20063;-60
2022/12/03 01:41:52;;;;;;;43.17;23.30;;;3.30;99.90;;;;;;5066196;28;20043;-58
2022/12/03 01:44:30;;;;;;;36.95;23.30;;;3.30;99.90;;;;;;5069064;28;20044;-58
2022/12/03 01:46:59;;;;;;;41.05;23.13;;;3.30;99.90;;;;;;5069651;28;20035;-57
2022/12/03 01:49:39;;;;;;;45.80;26.25;;;3.30;99.90;;;;;;5069468;28;20036;-57
2022/12/03 01:52:07;;;;;;;42.38;23.98;;;3.40;99.90;;;;;;5067546;28;20135;-60
2022/12/03 01:54:40;;;;;;;37.50;22.65;;;3.30;99.90;;;;;;5079999;28;20477;-60
2022/12/03 01:57:17;;;;;;;39.20;21.50;;;3.30;99.90;;;;;;5091084;28;20338;-57
2022/12/03 01:59:43;;;;;;;43.58;23.10;;;3.30;99.90;;;;;;5093487;28;20397;-59
2022/12/03 02:02:18;;;;;;;40.57;24.13;;;3.30;99.90;;;;;;5073433;28;20037;-60
2022/12/03 02:04:44;;;;;;;41.10;23.77;;;3.30;99.90;;;;;;5052390;28;20048;-57
2022/12/03 02:07:23;;;;;;;41.67;23.57;;;3.30;99.90;;;;;;5052968;28;20398;-57
2022/12/03 02:09:49;;;;;;;36.75;22.63;;;3.30;99.90;;;;;;5052710;28;20040;-56
2022/12/03 02:12:20;;;;;;;36.25;21.73;;;3.30;99.90;;;;;;5053764;28;20140;-60
2022/12/03 02:14:46;;;;;;;40.95;22.80;;;3.30;99.90;;;;;;5059290;28;20041;-61
2022/12/03 02:17:12;;;;;;;43.17;23.27;;;3.30;99.90;;;;;;5055397;28;20094;-61
2022/12/03 02:19:38;;;;;;;42.35;23.50;;;3.30;99.90;;;;;;5062444;28;20049;-60
2022/12/03 02:22:18;;;;;;;37.42;22.33;;;3.30;99.90;;;;;;5052308;28;20048;-60
2022/12/03 02:24:52;;;;;;;38.72;22.27;;;3.30;99.90;;;;;;5052682;28;20124;-60
2022/12/03 02:27:18;;;;;;;36.78;22.73;;;3.30;99.90;;;;;;5052666;28;20049;-60
2022/12/03 02:29:44;;;;;;;41.42;23.08;;;3.30;99.90;;;;;;5052633;28;20041;-61
2022/12/03 02:32:09;;;;;;;36.47;22.83;;;3.20;99.90;;;;;;5052375;28;20446;-56
2022/12/03 02:34:38;;;;;;;38.07;21.70;;;3.30;99.90;;;;;;5052654;28;20036;-58
2022/12/03 02:37:08;;;;;;;38.38;23.45;;;3.30;99.90;;;;;;5052696;28;20053;-61
2022/12/03 02:39:36;;;;;;;39.88;23.23;;;3.30;99.90;;;;;;5052079;28;20402;-58
2022/12/03 02:44:46;;;;;;;43.22;24.23;;;3.30;99.90;;;;;;5052554;28;20041;-60
2022/12/03 02:47:12;;;;;;;42.37;24.43;;;3.20;99.90;;;;;;5051591;28;20040;-57
2022/12/03 02:49:38;;;;;;;35.47;21.13;;;3.20;99.90;;;;;;5051975;28;20467;-58
2022/12/03 02:52:03;;;;;;;36.20;22.27;;;3.30;99.90;;;;;;5052017;28;20063;-55
2022/12/03 02:54:29;;;;;;;40.10;22.73;;;3.30;99.90;;;;;;5052282;28;20276;-60
2022/12/03 02:56:55;;;;;;;38.63;23.67;;;3.30;99.90;;;;;;5052005;28;20446;-58
2022/12/03 02:59:20;;;;;;;37.13;22.43;;;3.30;99.90;;;;;;5052676;28;20040;-58
2022/12/03 03:01:46;;;;;;;44.40;25.30;;;3.30;99.90;;;;;;5068850;28;20116;-57
2022/12/03 03:04:12;;;;;;;38.17;23.27;;;3.20;99.90;;;;;;5064365;28;20474;-61
2022/12/03 03:06:37;;;;;;;38.65;23.83;;;3.20;99.90;;;;;;5067349;28;20410;-57
2022/12/03 03:09:03;;;;;;;37.93;22.50;;;3.20;99.90;;;;;;5059580;28;20068;-59
2022/12/03 03:11:29;;;;;;;33.23;20.80;;;3.20;99.90;;;;;;5064016;28;20119;-58
2022/12/03 03:13:55;;;;;;;37.97;22.70;;;3.20;99.90;;;;;;5058085;28;20284;-57
2022/12/03 03:16:20;;;;;;;35.53;21.87;;;3.20;99.90;;;;;;5069647;28;20043;-58
2022/12/03 03:18:47;;;;;;;36.58;20.02;;;3.20;99.90;;;;;;5070817;28;20044;-58
2022/12/03 03:21:13;;;;;;;;;;;3.20;99.90;;;;;;5069890;28;20579;-58
2022/12/03 03:23:38;;;;;;;36.83;20.58;;;3.30;99.90;;;;;;5066622;28;19967;-58
2022/12/03 03:26:07;;;;;;;32.03;19.53;;;3.20;99.90;;;;;;5051635;28;20033;-58
2022/12/03 03:28:45;;;;;;;39.33;20.75;;;3.20;99.90;;;;;;5052014;28;20039;-60
2022/12/03 03:31:14;;;;;;;34.88;21.50;;;3.20;99.90;;;;;;5061237;28;20119;-60
2022/12/03 03:33:43;;;;;;;32.75;19.13;;;3.30;99.90;;;;;;5050997;28;20120;-60
2022/12/03 03:36:10;;;;;;;37.55;21.08;;;3.20;99.90;;;;;;5067381;28;20068;-55
2022/12/03 03:38:36;;;;;;;30.77;20.02;;;3.30;99.90;;;;;;5069948;28;20386;-59
2022/12/03 03:41:04;;;;;;;;;;;3.20;99.90;;;;;;5071162;28;20044;-59
2022/12/03 03:43:33;;;;;;;36.92;21.52;;;3.20;99.90;;;;;;5070360;28;19970;-60
2022/12/03 03:45:59;;;;;;;32.85;20.23;;;3.20;99.90;;;;;;5067958;28;20039;-55
2022/12/03 03:48:25;;;;;;;34.53;21.35;;;3.20;99.90;;;;;;5051059;28;20111;-57
2022/12/03 03:50:51;;;;;;;33.97;20.65;;;3.20;99.90;;;;;;5050873;28;20489;-57
2022/12/03 03:53:18;;;;;;;34.75;20.95;;;3.20;99.90;;;;;;5050390;28;20119;-60
2022/12/03 03:55:43;;;;;;;35.08;20.10;;;3.20;99.90;;;;;;5050586;28;20490;-58
2022/12/03 03:58:09;;;;;;;39.55;23.73;;;3.20;99.90;;;;;;5067121;28;20044;-55
2022/12/03 04:00:35;;;;;;;34.60;21.40;;;3.20;99.90;;;;;;5069904;28;20082;-60
2022/12/03 04:03:03;;;;;;;38.35;22.42;;;3.20;99.90;;;;;;5077713;28;20289;-57
2022/12/03 04:05:29;;;;;;;35.85;21.08;;;3.20;99.90;;;;;;5091042;28;20040;-61
2022/12/03 04:07:54;;;;;;;38.83;21.63;;;3.20;99.90;;;;;;5067129;28;20044;-56
2022/12/03 04:13:05;;;;;;;40.75;22.85;;;3.20;99.90;;;;;;5050032;28;20073;-58
2022/12/03 04:15:30;;;;;;;35.92;21.63;;;3.20;99.90;;;;;;5049352;28;20041;-58
2022/12/03 04:20:41;;;;;;;42.80;24.40;;;3.20;99.90;;;;;;5069195;28;20505;-59
2022/12/03 04:23:07;;;;;;;37.60;22.63;;;3.20;99.90;;;;;;5070179;28;20215;-60
2022/12/03 04:35:41;;;;;;;39.33;23.45;;;3.20;99.90;;;;;;5049930;28;20040;-60
2022/12/03 04:36:34;;;;;;;39.97;23.27;;;3.20;99.90;;;;;;5070141;28;20044;-58
2022/12/03 04:38:59;;;;;;;40.37;23.70;;;3.20;99.90;;;;;;5062413;28;20036;-56
2022/12/03 04:41:25;;;;;;;37.30;21.80;;;3.20;99.90;;;;;;5068761;28;20064;-59
2022/12/03 04:46:35;;;;;;;40.42;23.48;;;3.10;99.90;;;;;;5050205;28;20041;-60
2022/12/03 04:49:00;;;;;;;36.90;23.70;;;3.10;99.90;;;;;;5052252;28;20044;-57
2022/12/03 04:51:26;;;;;;;38.57;22.13;;;3.10;99.90;;;;;;5050042;28;20037;-60
2022/12/03 04:53:51;;;;;;;36.22;21.73;;;3.10;99.90;;;;;;5049291;28;20080;-58
2022/12/03 04:56:17;;;;;;;39.40;24.80;;;3.10;99.90;;;;;;5049913;28;20045;-61
2022/12/03 04:58:43;;;;;;;39.73;23.37;;;3.10;99.90;;;;;;5049724;28;20041;-60
2022/12/03 05:01:08;;;;;;;40.07;23.50;;;3.10;99.90;;;;;;5062729;28;20037;-60
2022/12/03 05:03:34;;;;;;;39.53;23.33;;;3.00;99.90;;;;;;5069684;28;20041;-57
2022/12/03 05:05:59;;;;;;;42.13;23.03;;;3.10;99.90;;;;;;5069814;28;20493;-59
2022/12/03 05:08:25;;;;;;;36.97;22.47;;;3.10;99.90;;;;;;5068540;28;20120;-60
2022/12/03 05:10:50;;;;;;;39.83;22.97;;;3.10;99.90;;;;;;5061800;28;20040;-60
2022/12/03 05:13:16;;;;;;;39.70;22.17;;;3.10;99.90;;;;;;5049555;28;20036;-57
2022/12/03 05:15:41;;;;;;;38.50;23.53;;;3.00;99.90;;;;;;5049739;28;20048;-59
2022/12/03 05:18:07;;;;;;;41.27;25.37;;;3.00;99.90;;;;;;5059849;28;20040;-57
2022/12/03 05:20:41;;;;;;;38.17;23.53;;;3.00;99.90;;;;;;5069747;28;20045;-59
2022/12/03 05:23:11;;;;;;;42.58;24.98;;;3.00;99.90;;;;;;5069304;28;20044;-60
2022/12/03 05:25:37;;;;;;;39.85;24.33;;;3.00;99.90;;;;;;5070004;28;20155;-61
2022/12/03 05:28:03;;;;;;;45.87;27.50;;;3.00;99.90;;;;;;5063839;28;20063;-58
2022/12/03 05:30:28;;;;;;;46.83;26.17;;;2.90;99.90;;;;;;5049881;28;20048;-57
2022/12/03 05:32:54;;;;;;;48.77;27.37;;;2.90;99.90;;;;;;5052695;28;20040;-60
2022/12/03 05:35:20;;;;;;;45.87;27.10;;;2.90;99.90;;;;;;5053590;28;20045;-58
2022/12/03 05:37:45;;;;;;;46.07;29.47;;;2.90;99.90;;;;;;5053091;28;20039;-63
2022/12/03 05:40:11;;;;;;;52.03;29.30;;;2.90;99.90;;;;;;5061377;28;20044;-57
2022/12/03 05:42:52;;;;;;;49.55;28.80;;;2.90;99.90;;;;;;5053659;28;20037;-57
2022/12/03 05:45:23;;;;;;;50.95;28.67;;;2.80;99.90;;;;;;5053313;28;20504;-58
2022/12/03 05:47:49;;;;;;;52.40;30.90;;;2.80;99.90;;;;;;5053337;28;20167;-58
2022/12/03 05:50:14;;;;;;;52.70;29.67;;;2.70;99.90;;;;;;5057271;28;20515;-58
2022/12/03 05:52:40;;;;;;;61.37;32.57;;;2.70;99.90;;;;;;5053421;28;20045;-63
2022/12/03 05:55:06;;;;;;;50.23;29.70;;;2.60;99.90;;;;;;5053552;28;20047;-59
2022/12/03 05:57:32;;;;;;;57.95;33.00;;;2.60;99.90;;;;;;5070930;28;20044;-57
2022/12/03 05:59:57;;;;;;;51.17;29.80;;;2.60;99.90;;;;;;5071472;28;20041;-58
2022/12/03 06:02:23;;;;;;;57.20;31.50;;;2.50;99.90;;;;;;5069408;28;20029;-55
2022/12/03 06:04:49;;;;;;;57.53;32.80;;;2.50;99.90;;;;;;5070652;28;20067;-60
2022/12/03 06:07:14;;;;;;;55.63;30.10;;;2.50;99.90;;;;;;5059991;28;20506;-57
2022/12/03 06:09:40;;;;;;;60.23;32.40;;;2.50;99.90;;;;;;5072177;28;20037;-58
2022/12/03 06:12:07;;;;;;;49.90;28.17;;;2.50;99.90;;;;;;5072280;28;20143;-57
2022/12/03 06:14:34;;;;;;;57.42;29.95;;;2.50;99.90;;;;;;5071350;28;20379;-59
2022/12/03 06:17:00;;;;;;;54.65;29.25;;;2.40;99.90;;;;;;5071155;28;20514;-59
2022/12/03 06:19:26;;;;;;;53.17;30.15;;;2.50;99.90;;;;;;5066715;28;20051;-57
2022/12/03 06:21:51;;;;;;;54.33;27.27;;;2.40;99.90;;;;;;5052390;28;20116;-60
2022/12/03 06:24:17;;;;;;;51.33;28.63;;;2.40;99.90;;;;;;5052043;28;20094;-56
2022/12/03 06:26:43;;;;;;;49.83;24.77;;;2.40;99.90;;;;;;5051416;28;20033;-60
2022/12/03 06:29:08;;;;;;;50.97;28.30;;;2.40;99.90;;;;;;5052278;28;20489;-57
2022/12/03 06:31:34;;;;;;;49.03;28.30;;;2.40;99.90;;;;;;5052656;28;20045;-60
2022/12/03 06:34:00;;;;;;;49.53;27.43;;;2.40;99.90;;;;;;5050188;28;20045;-57
2022/12/03 06:36:26;;;;;;;50.70;28.03;;;2.40;99.90;;;;;;5052384;28;20530;-58
2022/12/03 06:38:52;;;;;;;;;;;2.40;99.90;;;;;;5052796;28;20565;-56
2022/12/03 06:41:18;;;;;;;44.90;25.05;;;2.40;99.90;;;;;;5065357;28;20003;-57
2022/12/03 06:43:43;;;;;;;50.47;26.33;;;2.40;99.90;;;;;;5071490;28;20512;-59
2022/12/03 06:46:09;;;;;;;47.70;27.07;;;2.40;99.90;;;;;;5072408;28;20039;-59
2022/12/03 06:48:34;;;;;;;46.37;26.70;;;2.30;99.90;;;;;;5071858;28;20040;-59
2022/12/03 06:51:00;;;;;;;51.97;27.93;;;2.30;99.90;;;;;;5070282;28;20680;-57
2022/12/03 06:53:25;;;;;;;52.23;29.27;;;2.30;99.90;;;;;;5071460;28;20052;-60
2022/12/03 06:55:51;;;;;;;48.27;26.80;;;2.20;99.90;;;;;;5071943;28;20040;-57
2022/12/03 06:58:16;;;;;;;44.97;25.07;;;2.20;99.90;;;;;;5071979;28;20040;-58
2022/12/03 07:00:42;;;;;;;45.60;25.27;;;2.10;99.90;;;;;;5072001;28;20037;-58
2022/12/03 07:03:07;;;;;;;48.20;25.53;;;2.10;99.90;;;;;;5069140;28;20055;-59
2022/12/03 07:05:33;;;;;;;40.77;24.40;;;2.10;99.90;;;;;;5071999;28;20040;-57
2022/12/03 07:07:59;;;;;;;46.67;26.63;;;2.00;99.90;;;;;;5057610;28;20045;-57
2022/12/03 07:10:24;;;;;;;48.80;26.70;;;2.00;99.90;;;;;;5054257;28;20048;-58
2022/12/03 07:12:50;;;;;;;48.67;27.90;;;2.00;99.90;;;;;;5063422;28;20044;-62
2022/12/03 07:15:15;;;;;;;47.30;24.97;;;2.00;99.90;;;;;;5071683;28;20043;-57
2022/12/03 07:17:41;;;;;;;46.43;25.43;;;2.00;99.90;;;;;;5072244;28;20041;-57
2022/12/03 07:20:07;;;;;;;48.57;27.73;;;2.00;99.90;;;;;;5070983;28;20452;-58
2022/12/03 07:22:33;;;;;;;41.45;25.45;;;1.90;99.90;;;;;;5068946;28;20044;-58
2022/12/03 07:24:58;;;;;;;41.00;23.73;;;1.90;99.90;;;;;;5059334;28;20044;-60
2022/12/03 07:27:24;;;;;;;43.43;25.53;;;1.90;99.90;;;;;;5055604;28;20040;-59
2022/12/03 07:29:50;;;;;;;49.60;26.93;;;1.90;99.90;;;;;;5071066;28;20056;-58
2022/12/03 07:32:16;;;;;;;44.42;25.50;;;1.80;99.90;;;;;;5068685;28;20040;-60
2022/12/03 07:34:41;;;;;;;49.73;26.30;;;1.80;99.90;;;;;;5065350;28;20040;-60
2022/12/03 07:37:07;;;;;;;48.77;25.90;;;1.80;99.90;;;;;;5069743;28;20120;-59
2022/12/03 07:39:32;;;;;;;44.43;25.37;;;1.80;99.90;;;;;;5069077;28;20437;-53
2022/12/03 07:41:59;;;;;;;47.73;24.47;;;1.70;99.90;;;;;;5070770;28;20537;-57
2022/12/03 07:44:25;;;;;;;42.72;25.40;;;1.70;99.90;;;;;;5062215;28;20563;-57
2022/12/03 07:46:50;;;;;;;49.10;26.73;;;1.70;99.90;;;;;;5052980;28;20067;-57
2022/12/03 07:49:16;;;;;;;45.73;26.20;;;1.70;99.90;;;;;;5062874;28;20127;-60
2022/12/03 07:51:42;;;;;;;46.00;26.33;;;1.70;99.90;;;;;;5087939;28;20124;-58
2022/12/03 07:54:08;;;;;;;;;;;1.70;99.90;;;;;;5060234;28;20041;-59
2022/12/03 07:56:33;;;;;;;46.72;25.38;;;1.70;99.90;;;;;;5050775;28;19996;-61
2022/12/03 07:58:59;;;;;;;44.53;26.00;;;1.70;99.90;;;;;;5060023;28;20621;-56
2022/12/03 08:01:25;;;;;;;46.13;25.97;;;1.70;99.90;;;;;;5060274;28;20037;-58
2022/12/03 08:03:50;;;;;;;51.97;25.03;;;1.70;99.90;;;;;;5067517;28;20440;-57
2022/12/03 08:06:16;;;;;;;48.60;26.53;;;1.70;99.90;;;;;;5070436;28;20037;-56
2022/12/03 08:08:42;;;;;;;53.00;28.20;;;1.60;99.90;;;;;;5070784;28;20032;-57
2022/12/03 08:11:13;;;;;;;47.15;27.17;;;1.60;99.90;;;;;;5070203;28;20033;-60
2022/12/03 08:13:39;;;;;;;46.95;25.67;;;1.60;99.90;;;;;;5057950;28;20056;-58
2022/12/03 08:16:16;;;;;;;47.77;26.33;;;1.60;99.90;;;;;;5055090;28;20037;-58
2022/12/03 08:18:41;;;;;;;49.65;28.38;;;1.60;99.90;;;;;;5053500;28;20408;-59
2022/12/03 08:21:14;;;;;;;49.75;28.48;;;1.60;99.90;;;;;;5070772;28;20101;-56
2022/12/03 08:23:40;;;;;;;47.95;27.92;;;1.60;99.90;;;;;;5081597;28;20517;-56
2022/12/03 08:26:22;;;;;;;53.53;28.30;;;1.50;99.90;;;;;;5070337;28;20040;-58
2022/12/03 08:28:48;;;;;;;47.42;26.02;;;1.50;99.90;;;;;;5070193;28;20036;-56
2022/12/03 08:31:22;;;;;;;48.33;27.20;;;1.50;99.90;;;;;;5070457;28;20036;-57
2022/12/03 08:33:50;;;;;;;49.83;26.23;;;1.50;99.90;;;;;;5067886;28;20040;-56
2022/12/03 08:36:19;;;;;;;49.03;26.88;;;1.60;99.90;;;;;;5069808;28;20430;-56
2022/12/03 08:38:50;;;;;;;51.47;28.45;;;1.50;99.90;;;;;;5060008;28;20029;-56
2022/12/03 08:42:40;;;;;;;55.47;30.02;;;1.50;99.90;;;;;;5055263;28;20051;-59
2022/12/03 08:44:10;;;;;;;51.10;26.92;;;1.50;99.90;;;;;;5056299;28;20094;-60
2022/12/03 08:46:35;;;;;;;53.30;28.20;;;1.50;99.90;;;;;;5057134;28;20375;-58
2022/12/03 08:49:01;;;;;;;56.87;27.30;;;1.50;99.90;;;;;;5050034;28;20044;-57
2022/12/03 08:51:27;;;;;;;54.67;28.30;;;1.50;99.90;;;;;;5051415;28;20258;-59
2022/12/03 08:53:57;;;;;;;54.08;27.90;;;1.50;99.90;;;;;;5064612;28;20580;-58
2022/12/03 08:56:28;;;;;;;52.83;27.52;;;1.50;99.90;;;;;;5061506;28;20503;-59
2022/12/03 08:58:57;;;;;;;53.80;29.17;;;1.60;99.90;;;;;;5051414;28;20537;-60
2022/12/03 09:01:43;;;;;;;52.38;27.50;;;1.60;99.90;;;;;;5064569;28;20036;-57
2022/12/03 09:04:25;;;;;;;56.60;30.38;;;1.60;99.90;;;;;;5048954;28;20106;-58
2022/12/03 09:06:51;;;;;;;58.25;30.02;;;1.60;99.90;;;;;;5063874;28;20071;-54
2022/12/03 09:09:17;;;;;;;56.38;30.33;;;1.60;99.90;;;;;;5073937;28;20454;-56
2022/12/03 09:11:43;;;;;;;58.03;29.70;;;1.60;99.90;;;;;;5073709;28;20036;-57
2022/12/03 09:14:09;;;;;;;61.60;29.55;;;1.60;99.90;;;;;;5073628;28;20037;-58
2022/12/03 09:16:35;;;;;;;61.40;32.30;;;1.60;99.90;;;;;;5066352;28;20486;-57
2022/12/03 09:19:00;;;;;;;53.37;28.43;;;1.60;99.90;;;;;;5053645;28;20124;-55
2022/12/03 09:21:26;;;;;;;55.47;29.10;;;1.60;99.90;;;;;;5052633;28;20286;-57
2022/12/03 09:23:52;;;;;;;66.33;31.77;;;1.70;99.90;;;;;;5052964;28;20127;-56
2022/12/03 09:26:17;;;;;;;54.70;27.33;;;1.70;99.90;;;;;;5065383;28;20551;-57
2022/12/03 09:28:43;;;;;;;59.67;30.27;;;1.70;99.90;;;;;;5072747;28;20529;-57
2022/12/03 09:31:08;;;;;;;59.37;28.97;;;1.70;99.90;;;;;;5071429;28;20486;-59
2022/12/03 09:33:34;;;;;;;57.73;28.77;;;1.70;99.90;;;;;;5060646;28;20037;-58
2022/12/03 09:35:59;;;;;;;55.70;29.87;;;1.70;99.90;;;;;;5069239;28;20041;-56
2022/12/03 09:38:25;;;;;;;56.50;29.60;;;1.70;99.90;;;;;;5058201;28;20029;-59
2022/12/03 09:40:51;;;;;;;57.57;29.23;;;1.70;99.90;;;;;;5053115;28;20037;-55
2022/12/03 09:43:17;;;;;;;55.58;28.88;;;1.80;99.90;;;;;;5057647;28;20041;-54
2022/12/03 09:45:44;;;;;;;56.63;28.67;;;1.90;99.90;;;;;;5053120;28;20094;-56
2022/12/03 09:48:12;;;;;;;58.08;29.73;;;2.00;99.90;;;;;;5064876;28;20044;-60
2022/12/03 09:50:40;;;;;;;58.22;29.42;;;2.00;99.90;;;;;;5058000;28;20525;-54
2022/12/03 09:53:09;;;;;;;74.45;30.80;;;2.00;99.90;;;;;;5061623;28;20052;-56
2022/12/03 09:55:35;;;;;;;64.68;31.50;;;2.00;99.90;;;;;;5072879;28;20119;-53
2022/12/03 09:58:01;;;;;;;60.87;28.23;;;2.00;99.90;;;;;;5060807;28;20191;-56
2022/12/03 10:00:29;;;;;;;58.35;30.15;;;2.00;99.90;;;;;;5052979;28;20506;-58
2022/12/03 10:02:58;;;;;;;58.20;29.88;;;2.10;99.90;;;;;;5058369;28;20052;-57
2022/12/03 10:05:24;;;;;;;59.97;30.20;;;2.10;99.90;;;;;;5072360;28;20036;-61
2022/12/03 10:07:51;;;;;;;59.00;30.35;;;2.10;99.90;;;;;;5060110;28;20044;-60
2022/12/03 10:10:19;;;;;;;57.40;31.67;;;2.10;99.90;;;;;;5072379;28;20101;-56
2022/12/03 10:12:45;;;;;;;59.65;28.25;;;2.10;99.90;;;;;;5055097;28;20044;-57
2022/12/03 10:15:16;;;;;;;59.42;29.45;;;2.10;99.90;;;;;;5052807;28;20033;-52
2022/12/03 10:17:42;;;;;;;55.25;29.63;;;2.20;99.90;;;;;;5067002;28;20036;-57
2022/12/03 10:20:12;;;;;;;57.15;30.05;;;2.20;99.90;;;;;;5072356;28;20041;-56
2022/12/03 10:22:38;;;;;;;61.70;30.27;;;2.20;99.90;;;;;;5058789;28;20086;-59
2022/12/03 10:25:13;;;;;;;53.63;27.95;;;2.20;99.90;;;;;;5053434;28;20043;-56
2022/12/03 10:27:40;;;;;;;62.92;32.30;;;2.20;99.90;;;;;;5063196;28;20550;-55
2022/12/03 10:30:18;;;;;;;64.85;32.80;;;2.20;99.90;;;;;;5071823;28;20044;-53
2022/12/03 10:32:47;;;;;;;60.85;30.85;;;2.20;99.90;;;;;;5060153;28;20061;-53
2022/12/03 10:35:19;;;;;;;58.78;29.90;;;2.20;99.90;;;;;;5063660;28;20101;-52
2022/12/03 10:38:05;;;;;;;56.00;30.20;;;2.10;99.90;;;;;;5060470;28;20091;-56
2022/12/03 10:40:36;;;;;;;60.88;30.85;;;2.10;99.90;;;;;;5060340;28;20405;-59
2022/12/03 10:43:23;;;;;;;63.00;30.90;;;2.10;99.90;;;;;;5066398;28;20032;-52
2022/12/03 10:46:11;;;;;;;54.53;30.50;;;2.10;99.90;;;;;;5057384;28;20045;-54
2022/12/03 10:48:37;;;;;;;56.95;31.02;;;2.10;99.90;;;;;;5062631;28;20036;-53
2022/12/03 10:51:10;;;;;;;55.63;31.40;;;2.10;99.90;;;;;;5064407;28;20334;-55
2022/12/03 10:53:39;;;;;;;56.05;31.42;;;2.10;99.90;;;;;;5058209;28;20493;-53
2022/12/03 10:56:06;;;;;;;57.25;31.65;;;2.10;99.90;;;;;;5058569;28;20398;-56
2022/12/03 10:58:39;;;;;;;61.67;32.83;;;2.10;99.90;;;;;;5063099;28;20047;-54
2022/12/03 11:01:16;;;;;;;65.40;34.67;;;2.10;99.90;;;;;;5071707;28;20052;-54
2022/12/03 11:03:41;;;;;;;69.50;35.58;;;2.10;99.90;;;;;;5065851;28;20036;-53
2022/12/03 11:06:21;;;;;;;61.53;32.63;;;2.10;99.90;;;;;;5069698;28;20411;-55
2022/12/03 11:08:50;;;;;;;69.38;33.72;;;2.10;99.90;;;;;;5059152;28;20271;-58
2022/12/03 11:11:18;;;;;;;71.93;36.53;;;2.00;99.90;;;;;;5049922;28;20547;-55
2022/12/03 11:13:46;;;;;;;72.68;36.28;;;2.00;99.90;;;;;;5064460;28;20036;-56
2022/12/03 11:16:12;;;;;;;65.13;34.95;;;2.00;99.90;;;;;;5064056;28;20043;-57
2022/12/03 11:18:38;;;;;;;;;;;2.00;99.90;;;;;;5055040;28;20033;-54
2022/12/03 11:21:12;;;;;;;67.13;34.40;;;2.00;99.90;;;;;;5054679;28;20262;-57
2022/12/03 11:23:43;;;;;;;66.82;33.42;;;2.00;99.90;;;;;;5057623;28;20745;-57
2022/12/03 11:26:35;;;;;;;63.25;32.38;;;2.00;99.90;;;;;;5067932;28;20531;-58
2022/12/03 11:29:01;;;;;;;61.60;31.73;;;2.00;99.90;;;;;;5028943;28;20044;-55
2022/12/03 11:31:32;;;;;;;58.67;31.07;;;2.00;99.90;;;;;;5051524;28;20379;-58
2022/12/03 11:34:18;;;;;;;60.13;32.20;;;2.00;99.90;;;;;;5055776;28;20501;-56
2022/12/03 11:37:08;;;;;;;65.00;31.40;;;2.00;99.90;;;;;;5055630;28;20519;-58
2022/12/03 11:39:49;;;;;;;60.50;32.78;;;1.90;99.90;;;;;;5060795;28;20072;-57
2022/12/03 11:42:24;;;;;;;63.20;32.28;;;1.90;99.90;;;;;;5070839;28;20470;-55
2022/12/03 11:45:04;;;;;;;62.88;32.38;;;1.90;99.90;;;;;;5060057;28;20120;-53
2022/12/03 11:47:59;;;;;;;59.88;32.28;;;1.90;99.90;;;;;;5051809;28;20068;-57
2022/12/03 11:50:30;;;;;;;63.55;32.58;;;1.90;99.90;;;;;;5056605;28;20048;-56
2022/12/03 11:53:00;;;;;;;63.35;33.00;;;1.90;99.90;;;;;;5050106;28;20171;-54
2022/12/03 11:55:33;;;;;;;55.75;32.13;;;1.80;99.90;;;;;;5064105;28;20048;-54
2022/12/03 11:58:01;;;;;;;59.33;32.10;;;1.80;99.90;;;;;;5071026;28;20040;-58
2022/12/03 12:00:27;;;;;;;62.80;32.92;;;1.80;99.90;;;;;;5069169;28;20045;-58
2022/12/03 12:02:55;;;;;;;60.53;30.60;;;1.80;99.90;;;;;;5070545;28;20040;-59
2022/12/03 12:05:25;;;;;;;67.55;32.72;;;1.80;99.90;;;;;;5058776;28;20045;-56
2022/12/03 12:07:52;;;;;;;56.92;31.30;;;1.70;99.90;;;;;;5051138;28;20044;-55
2022/12/03 12:10:36;;;;;;;;;;;1.70;99.90;;;;;;5061342;28;20037;-53
2022/12/03 12:13:01;;;;;;;59.25;32.60;;;1.80;99.90;;;;;;5069283;28;19916;-55
2022/12/03 12:15:43;;;;;;;62.83;33.17;;;1.80;99.90;;;;;;5068934;28;20051;-56
2022/12/03 12:18:42;;;;;;;58.05;30.83;;;1.80;99.90;;;;;;5070875;28;20412;-56
2022/12/03 12:21:43;;;;;;;64.82;33.95;;;1.80;99.90;;;;;;5053577;28;20510;-55
2022/12/03 12:24:45;;;;;;;68.00;33.53;;;1.80;99.90;;;;;;5049550;28;20091;-57
2022/12/03 12:27:22;;;;;;;59.70;30.38;;;1.80;99.90;;;;;;5050443;28;20043;-53
2022/12/03 12:29:56;;;;;;;62.25;31.88;;;1.80;99.90;;;;;;5051781;28;20100;-55
2022/12/03 12:32:27;;;;;;;61.88;32.47;;;1.80;99.90;;;;;;5069869;28;20108;-56
2022/12/03 12:34:56;;;;;;;61.42;32.38;;;1.70;99.90;;;;;;5069122;28;20044;-53
2022/12/03 12:37:35;;;;;;;58.88;31.40;;;1.70;99.90;;;;;;5069468;28;20536;-52
2022/12/03 12:40:10;;;;;;;60.78;32.70;;;1.70;99.90;;;;;;5069202;28;20036;-57
2022/12/03 12:42:41;;;;;;;55.67;30.77;;;1.60;99.90;;;;;;5049901;28;20564;-54
2022/12/03 12:45:07;;;;;;;59.17;31.27;;;1.60;99.90;;;;;;5048024;28;20037;-56
2022/12/03 12:47:35;;;;;;;61.37;31.93;;;1.60;99.90;;;;;;5051246;28;20036;-52
2022/12/03 12:50:01;;;;;;;58.38;31.92;;;1.60;99.90;;;;;;5050170;28;20091;-55
2022/12/03 12:52:26;;;;;;;60.60;30.13;;;1.60;99.90;;;;;;5067397;28;20047;-55
2022/12/03 12:54:52;;;;;;;60.33;30.73;;;1.60;99.90;;;;;;5069415;28;20041;-56
2022/12/03 12:57:21;;;;;;;59.20;30.48;;;1.50;99.90;;;;;;5068143;28;20295;-54
2022/12/03 12:59:47;;;;;;;59.78;30.40;;;1.60;99.90;;;;;;5069994;28;20056;-52
2022/12/03 13:02:40;;;;;;;55.15;31.30;;;1.60;99.90;;;;;;5056109;28;20041;-53
2022/12/03 13:05:10;;;;;;;56.28;29.35;;;1.60;99.90;;;;;;5049602;28;20453;-54
2022/12/03 13:07:36;;;;;;;55.63;28.65;;;1.60;99.90;;;;;;5050669;28;20502;-51